Time;durP1;ratioP1;P1;durP2;ratioP2;P2;SDS_P1;SDS_P2;PMS_P1;PMS_P2;Temp;Humidity;BMP_temperature;BMP_pressure;BME280_temperature;BME280_humidity;BME280_pressure;Samples;Min_cycle;Max_cycle;Signal;HPM_P1;HPM_P2
2022/07/22 00:01:33;;;;;;;4.10;4.00;;;;;;;;;;5030681;28;20427;-77
2022/07/22 00:04:01;;;;;;;7.50;4.30;;;;;;;;;;5029480;28;20434;-81
2022/07/22 00:06:27;;;;;;;3.50;3.30;;;;;;;;;;5030566;28;20905;-78
2022/07/22 00:08:53;;;;;;;12.33;4.27;;;;;;;;;;5031218;28;20994;-77
2022/07/22 00:11:20;;;;;;;4.97;4.60;;;;;;;;;;5031319;28;20649;-78
2022/07/22 00:13:46;;;;;;;3.70;3.60;;;;;;;;;;5029887;28;20816;-83
2022/07/22 00:16:12;;;;;;;10.07;4.03;;;;;;;;;;5030396;28;20439;-83
2022/07/22 00:18:38;;;;;;;4.00;3.67;;;;;;;;;;5031134;28;20506;-79
2022/07/22 00:21:04;;;;;;;4.97;4.60;;;;;;;;;;5031660;28;20531;-79
2022/07/22 00:23:30;;;;;;;4.43;4.20;;;;;;;;;;5030302;28;20513;-82
2022/07/22 00:25:56;;;;;;;4.00;3.70;;;;;;;;;;5031369;28;20935;-77
2022/07/22 00:28:22;;;;;;;4.33;4.10;;;;;;;;;;5031235;28;20521;-81
2022/07/22 00:30:48;;;;;;;4.30;4.07;;;;;;;;;;5030679;28;20419;-82
2022/07/22 00:33:14;;;;;;;4.40;4.10;;;;;;;;;;5030531;28;20475;-76
2022/07/22 00:35:40;;;;;;;3.93;3.83;;;;;;;;;;5031577;28;20516;-79
2022/07/22 00:38:06;;;;;;;3.87;3.70;;;;;;;;;;5026223;28;20439;-77
2022/07/22 00:40:32;;;;;;;3.97;3.87;;;;;;;;;;5028358;28;20435;-80
2022/07/22 00:42:58;;;;;;;5.87;3.67;;;;;;;;;;5029970;28;21013;-76
2022/07/22 00:45:24;;;;;;;7.37;4.57;;;;;;;;;;5029680;28;20437;-78
2022/07/22 00:47:50;;;;;;;4.70;4.40;;;;;;;;;;5030955;28;20310;-83
2022/07/22 00:50:18;;;;;;;7.80;4.20;;;;;;;;;;5030555;28;20881;-79
2022/07/22 00:52:44;;;;;;;4.47;4.33;;;;;;;;;;5027727;28;20533;-81
2022/07/22 00:55:10;;;;;;;5.00;4.60;;;;;;;;;;5030962;28;20439;-80
2022/07/22 00:57:36;;;;;;;4.50;4.00;;;;;;;;;;5030326;28;20513;-79
2022/07/22 01:00:05;;;;;;;6.80;4.53;;;;;;;;;;5029981;28;20518;-80
2022/07/22 01:02:32;;;;;;;4.77;4.47;;;;;;;;;;5028189;28;20435;-81
2022/07/22 01:04:58;;;;;;;5.40;4.83;;;;;;;;;;5029539;28;20431;-79
2022/07/22 01:07:24;;;;;;;9.67;4.37;;;;;;;;;;5029612;28;20537;-81
2022/07/22 01:09:50;;;;;;;4.40;4.10;;;;;;;;;;5029521;28;20943;-77
2022/07/22 01:12:16;;;;;;;5.13;4.83;;;;;;;;;;5029071;28;20467;-80
2022/07/22 01:14:42;;;;;;;4.70;4.50;;;;;;;;;;5028732;28;20915;-82
2022/07/22 01:17:08;;;;;;;5.20;4.10;;;;;;;;;;5029666;28;20908;-82
2022/07/22 01:19:36;;;;;;;4.60;4.30;;;;;;;;;;5030185;28;20419;-83
2022/07/22 01:22:01;;;;;;;5.00;4.60;;;;;;;;;;5028719;28;20457;-77
2022/07/22 01:24:28;;;;;;;6.40;4.07;;;;;;;;;;5027626;28;20431;-76
2022/07/22 01:26:54;;;;;;;4.50;4.30;;;;;;;;;;5030280;28;20486;-80
2022/07/22 01:29:20;;;;;;;4.77;4.40;;;;;;;;;;5027769;28;20423;-80
2022/07/22 01:31:46;;;;;;;4.30;4.10;;;;;;;;;;5027053;28;20473;-75
2022/07/22 01:34:12;;;;;;;4.03;3.70;;;;;;;;;;5028678;28;20919;-76
2022/07/22 01:36:38;;;;;;;4.40;4.10;;;;;;;;;;5029071;28;21043;-75
2022/07/22 01:39:04;;;;;;;5.20;5.00;;;;;;;;;;5027328;28;20518;-79
2022/07/22 01:41:30;;;;;;;4.53;4.23;;;;;;;;;;5030155;28;21158;-82
2022/07/22 01:43:56;;;;;;;4.47;4.20;;;;;;;;;;5028733;28;20434;-79
2022/07/22 01:46:23;;;;;;;4.20;4.10;;;;;;;;;;5030069;28;20255;-83
2022/07/22 01:48:49;;;;;;;3.70;3.50;;;;;;;;;;5027049;28;20504;-80
2022/07/22 01:51:15;;;;;;;3.80;3.70;;;;;;;;;;5028329;28;20506;-82
2022/07/22 01:53:41;;;;;;;4.90;4.67;;;;;;;;;;5029103;28;20831;-82
2022/07/22 01:56:07;;;;;;;6.50;5.03;;;;;;;;;;5026094;28;20467;-82
2022/07/22 01:58:33;;;;;;;4.10;3.90;;;;;;;;;;5028915;28;20439;-80
2022/07/22 02:00:59;;;;;;;4.73;4.53;;;;;;;;;;5028840;28;20427;-81
2022/07/22 02:03:25;;;;;;;4.70;4.40;;;;;;;;;;5029077;28;20428;-80
2022/07/22 02:05:51;;;;;;;4.30;3.97;;;;;;;;;;5029378;28;20450;-81
2022/07/22 02:08:17;;;;;;;5.33;4.53;;;;;;;;;;5028149;28;20474;-79
2022/07/22 02:10:44;;;;;;;3.80;3.70;;;;;;;;;;5029291;28;20493;-79
2022/07/22 02:13:10;;;;;;;4.13;4.03;;;;;;;;;;5028853;28;20855;-80
2022/07/22 02:15:36;;;;;;;5.03;4.63;;;;;;;;;;5027836;28;20427;-76
2022/07/22 02:18:16;;;;;;;5.13;4.93;;;;;;;;;;5029635;28;20445;-75
2022/07/22 02:20:42;;;;;;;5.10;4.90;;;;;;;;;;5028037;28;20489;-79
2022/07/22 02:23:10;;;;;;;8.60;4.87;;;;;;;;;;5027888;28;20520;-78
2022/07/22 02:25:36;;;;;;;4.47;4.27;;;;;;;;;;5029111;28;20493;-75
2022/07/22 02:28:02;;;;;;;4.30;4.20;;;;;;;;;;5028900;28;20491;-78
2022/07/22 02:30:28;;;;;;;4.93;4.70;;;;;;;;;;5028605;28;20442;-79
2022/07/22 02:32:54;;;;;;;6.13;4.63;;;;;;;;;;5028523;28;20439;-79
2022/07/22 02:35:20;;;;;;;5.07;4.77;;;;;;;;;;5029366;28;20782;-79
2022/07/22 02:37:46;;;;;;;4.30;4.20;;;;;;;;;;5027293;28;20448;-73
2022/07/22 02:40:12;;;;;;;4.80;4.43;;;;;;;;;;5028075;28;20438;-81
2022/07/22 02:42:38;;;;;;;5.73;5.43;;;;;;;;;;5028804;28;20446;-82
2022/07/22 02:45:04;;;;;;;4.03;3.83;;;;;;;;;;5028695;28;20419;-79
2022/07/22 02:47:30;;;;;;;4.47;4.30;;;;;;;;;;5027938;28;21002;-81
2022/07/22 02:49:56;;;;;;;5.67;4.33;;;;;;;;;;5029113;28;20463;-80
2022/07/22 02:52:22;;;;;;;4.57;4.37;;;;;;;;;;5028908;28;20950;-83
2022/07/22 02:54:48;;;;;;;4.63;4.30;;;;;;;;;;5027445;28;20478;-79
2022/07/22 02:57:14;;;;;;;5.90;5.40;;;;;;;;;;5027456;28;20443;-82
2022/07/22 02:59:40;;;;;;;3.60;3.50;;;;;;;;;;5028836;28;20439;-81
2022/07/22 03:02:06;;;;;;;5.27;4.90;;;;;;;;;;5029268;28;20439;-82
2022/07/22 03:04:33;;;;;;;4.97;4.63;;;;;;;;;;5028679;28;20446;-80
2022/07/22 03:06:58;;;;;;;5.10;4.80;;;;;;;;;;5028827;28;20481;-81
2022/07/22 03:09:24;;;;;;;5.40;5.00;;;;;;;;;;5026936;28;20439;-80
2022/07/22 03:11:50;;;;;;;5.07;4.53;;;;;;;;;;5028752;28;20513;-78
2022/07/22 03:14:18;;;;;;;4.87;4.57;;;;;;;;;;5027525;28;20517;-78
2022/07/22 03:16:44;;;;;;;5.13;4.70;;;;;;;;;;5027822;28;20446;-76
2022/07/22 03:19:10;;;;;;;5.20;4.87;;;;;;;;;;5028757;28;20443;-80
2022/07/22 03:21:36;;;;;;;5.40;5.10;;;;;;;;;;5028734;28;21065;-75
2022/07/22 03:24:02;;;;;;;6.60;5.97;;;;;;;;;;5028232;28;20442;-79
2022/07/22 03:26:28;;;;;;;6.17;5.30;;;;;;;;;;5028411;28;20462;-81
2022/07/22 03:28:54;;;;;;;5.17;4.87;;;;;;;;;;5026053;28;21002;-81
2022/07/22 03:31:20;;;;;;;5.20;5.00;;;;;;;;;;5028265;28;20435;-80
2022/07/22 03:33:46;;;;;;;5.37;4.93;;;;;;;;;;5028467;28;20553;-81
2022/07/22 03:36:12;;;;;;;6.63;5.90;;;;;;;;;;5027183;28;20861;-80
2022/07/22 03:38:38;;;;;;;5.57;5.27;;;;;;;;;;5028251;28;20439;-81
2022/07/22 03:41:04;;;;;;;6.20;5.83;;;;;;;;;;5029790;28;20477;-80
2022/07/22 03:43:32;;;;;;;5.70;5.50;;;;;;;;;;5031372;28;20439;-81
2022/07/22 03:45:59;;;;;;;4.57;4.37;;;;;;;;;;5032176;28;20923;-76
2022/07/22 03:48:25;;;;;;;7.10;4.80;;;;;;;;;;5032173;28;20549;-82
2022/07/22 03:50:51;;;;;;;5.07;4.77;;;;;;;;;;5031469;28;20427;-79
2022/07/22 03:53:17;;;;;;;5.70;5.30;;;;;;;;;;5030675;28;20475;-75
2022/07/22 03:55:43;;;;;;;6.13;5.60;;;;;;;;;;5031974;28;20435;-81
2022/07/22 03:58:10;;;;;;;6.43;5.83;;;;;;;;;;5032086;28;20549;-78
2022/07/22 04:00:36;;;;;;;6.40;5.53;;;;;;;;;;5030912;28;20526;-82
2022/07/22 04:03:02;;;;;;;9.93;5.23;;;;;;;;;;5029955;28;20423;-80
2022/07/22 04:05:28;;;;;;;5.83;5.40;;;;;;;;;;5030307;28;20522;-81
2022/07/22 04:07:54;;;;;;;6.10;5.70;;;;;;;;;;5031310;28;20493;-78
2022/07/22 04:10:20;;;;;;;6.90;6.50;;;;;;;;;;5031022;28;20443;-79
2022/07/22 04:12:46;;;;;;;6.67;6.00;;;;;;;;;;5031382;28;20441;-73
2022/07/22 04:15:12;;;;;;;6.70;6.20;;;;;;;;;;5030515;28;20435;-75
2022/07/22 04:17:38;;;;;;;7.57;6.77;;;;;;;;;;5031208;28;20801;-79
2022/07/22 04:20:05;;;;;;;7.20;6.50;;;;;;;;;;5031214;28;20435;-82
2022/07/22 04:22:31;;;;;;;7.03;6.50;;;;;;;;;;5029154;28;20444;-81
2022/07/22 04:24:57;;;;;;;6.60;6.30;;;;;;;;;;5025829;28;20431;-81
2022/07/22 04:27:23;;;;;;;5.80;5.57;;;;;;;;;;5030118;28;20536;-79
2022/07/22 04:29:49;;;;;;;7.67;7.07;;;;;;;;;;5030013;28;20430;-82
2022/07/22 04:32:15;;;;;;;6.60;6.30;;;;;;;;;;5028864;28;20447;-77
2022/07/22 04:34:41;;;;;;;7.30;6.73;;;;;;;;;;5030641;28;20430;-83
2022/07/22 04:37:08;;;;;;;7.10;6.70;;;;;;;;;;5030697;28;20886;-82
2022/07/22 04:39:34;;;;;;;10.00;6.80;;;;;;;;;;5031107;28;20915;-76
2022/07/22 04:42:00;;;;;;;8.90;7.40;;;;;;;;;;5028718;28;20434;-81
2022/07/22 04:44:26;;;;;;;7.03;6.53;;;;;;;;;;5030079;28;20459;-83
2022/07/22 04:46:52;;;;;;;7.80;6.23;;;;;;;;;;5030607;28;20506;-80
2022/07/22 04:49:18;;;;;;;7.80;6.33;;;;;;;;;;5030857;28;20488;-81
2022/07/22 04:51:43;;;;;;;6.70;6.40;;;;;;;;;;5028190;28;20782;-82
2022/07/22 04:54:09;;;;;;;9.17;8.30;;;;;;;;;;5029627;28;20656;-81
2022/07/22 04:56:35;;;;;;;7.17;6.77;;;;;;;;;;5030326;28;20442;-82
2022/07/22 04:59:01;;;;;;;9.30;8.57;;;;;;;;;;5028756;28;20601;-74
2022/07/22 05:01:27;;;;;;;12.03;7.03;;;;;;;;;;5027995;28;20550;-74
2022/07/22 05:03:53;;;;;;;12.70;8.10;;;;;;;;;;5028596;28;20954;-72
2022/07/22 05:06:19;;;;;;;7.97;7.47;;;;;;;;;;5029807;28;20431;-72
2022/07/22 05:08:45;;;;;;;8.87;8.07;;;;;;;;;;5029916;28;20435;-72
2022/07/22 05:11:12;;;;;;;12.20;8.70;;;;;;;;;;5026807;28;20855;-73
2022/07/22 05:13:37;;;;;;;9.13;8.00;;;;;;;;;;5027882;28;20450;-73
2022/07/22 05:16:07;;;;;;;9.07;8.17;;;;;;;;;;5029298;28;20805;-73
2022/07/22 05:18:34;;;;;;;11.50;7.10;;;;;;;;;;5030610;28;20462;-72
2022/07/22 05:21:00;;;;;;;15.03;7.83;;;;;;;;;;5030095;28;20457;-72
2022/07/22 05:23:26;;;;;;;8.23;7.73;;;;;;;;;;5029692;28;20459;-73
2022/07/22 05:25:52;;;;;;;11.33;8.77;;;;;;;;;;5029553;28;20505;-73
2022/07/22 05:28:19;;;;;;;8.33;7.43;;;;;;;;;;5029393;28;20843;-73
2022/07/22 05:30:45;;;;;;;7.73;7.33;;;;;;;;;;5029775;28;20485;-73
2022/07/22 05:33:11;;;;;;;9.20;8.43;;;;;;;;;;5029768;28;20854;-72
2022/07/22 05:35:37;;;;;;;7.90;7.30;;;;;;;;;;5028429;28;20620;-72
2022/07/22 05:38:03;;;;;;;9.33;8.73;;;;;;;;;;5028727;28;20458;-72
2022/07/22 05:40:29;;;;;;;11.23;8.80;;;;;;;;;;5027651;28;20427;-80
2022/07/22 05:42:55;;;;;;;9.13;8.43;;;;;;;;;;5025306;28;20439;-73
2022/07/22 05:45:21;;;;;;;9.80;9.10;;;;;;;;;;5026431;28;20431;-73
2022/07/22 05:47:47;;;;;;;10.83;9.30;;;;;;;;;;5025966;28;20509;-74
2022/07/22 05:50:13;;;;;;;17.50;9.43;;;;;;;;;;5028909;28;20577;-73
2022/07/22 05:52:39;;;;;;;10.00;9.20;;;;;;;;;;5029074;28;20270;-73
2022/07/22 05:55:05;;;;;;;11.90;8.60;;;;;;;;;;5030137;28;20430;-73
2022/07/22 05:57:31;;;;;;;10.07;9.20;;;;;;;;;;5028499;28;20451;-73
2022/07/22 05:59:57;;;;;;;9.17;8.33;;;;;;;;;;5025397;28;20455;-73
2022/07/22 06:02:23;;;;;;;8.13;7.33;;;;;;;;;;5027099;28;20447;-73
2022/07/22 06:04:49;;;;;;;10.00;9.03;;;;;;;;;;5023742;28;20586;-74
2022/07/22 06:07:15;;;;;;;9.40;8.63;;;;;;;;;;5027882;28;20483;-73
2022/07/22 06:09:41;;;;;;;14.20;9.27;;;;;;;;;;5029217;28;20469;-74
2022/07/22 06:12:07;;;;;;;11.07;9.77;;;;;;;;;;5028598;28;20431;-73
2022/07/22 06:14:33;;;;;;;9.23;8.33;;;;;;;;;;5028063;28;20454;-73
2022/07/22 06:16:59;;;;;;;8.93;8.23;;;;;;;;;;5026167;28;20423;-73
2022/07/22 06:19:25;;;;;;;9.40;8.70;;;;;;;;;;5028815;28;20434;-72
2022/07/22 06:21:51;;;;;;;10.60;9.37;;;;;;;;;;5028722;28;20438;-73
2022/07/22 06:24:17;;;;;;;8.77;7.83;;;;;;;;;;5027286;28;20435;-73
2022/07/22 06:26:44;;;;;;;8.23;7.50;;;;;;;;;;5025446;28;20573;-72
2022/07/22 06:29:10;;;;;;;10.90;9.90;;;;;;;;;;5025376;28;20442;-72
2022/07/22 06:31:36;;;;;;;9.63;8.70;;;;;;;;;;5026166;28;20431;-74
2022/07/22 06:34:05;;;;;;;8.77;8.10;;;;;;;;;;5028487;28;20426;-73
2022/07/22 06:36:31;;;;;;;9.73;8.47;;;;;;;;;;5027832;28;20514;-72
2022/07/22 06:38:57;;;;;;;13.83;8.87;;;;;;;;;;5027916;28;20431;-72
2022/07/22 06:41:23;;;;;;;9.17;8.47;;;;;;;;;;5026536;28;20843;-73
2022/07/22 06:43:49;;;;;;;9.20;8.60;;;;;;;;;;5027745;28;20349;-73
2022/07/22 06:46:15;;;;;;;15.77;10.40;;;;;;;;;;5027749;28;20438;-72
2022/07/22 06:48:41;;;;;;;8.93;8.23;;;;;;;;;;5029173;28;20439;-73
2022/07/22 06:51:07;;;;;;;9.10;8.30;;;;;;;;;;5029293;28;20431;-72
2022/07/22 06:53:33;;;;;;;10.90;9.20;;;;;;;;;;5029004;28;20478;-72
2022/07/22 06:55:59;;;;;;;9.23;8.30;;;;;;;;;;5028610;28;20443;-73
2022/07/22 06:58:25;;;;;;;9.70;8.90;;;;;;;;;;5028358;28;20445;-72
2022/07/22 07:00:51;;;;;;;10.23;9.10;;;;;;;;;;5029185;28;20187;-73
2022/07/22 07:03:17;;;;;;;9.90;8.57;;;;;;;;;;5029055;28;20784;-73
2022/07/22 07:05:43;;;;;;;19.80;10.80;;;;;;;;;;5027663;28;20530;-73
2022/07/22 07:08:09;;;;;;;9.63;8.87;;;;;;;;;;5028604;28;20565;-73
2022/07/22 07:10:35;;;;;;;10.27;9.47;;;;;;;;;;5029315;28;20423;-74
2022/07/22 07:13:01;;;;;;;9.90;8.63;;;;;;;;;;5028631;28;20427;-72
2022/07/22 07:15:27;;;;;;;9.10;8.40;;;;;;;;;;5030219;28;20419;-73
2022/07/22 07:17:54;;;;;;;10.43;8.77;;;;;;;;;;5032888;28;20434;-73
2022/07/22 07:20:20;;;;;;;12.20;8.90;;;;;;;;;;5031756;28;20423;-73
2022/07/22 07:22:46;;;;;;;12.10;9.20;;;;;;;;;;5032581;28;20486;-73
2022/07/22 07:25:12;;;;;;;9.30;8.50;;;;;;;;;;5033069;28;20419;-73
2022/07/22 07:27:38;;;;;;;10.23;8.67;;;;;;;;;;5032747;28;20510;-73
2022/07/22 07:30:05;;;;;;;10.77;9.10;;;;;;;;;;5030678;28;20553;-73
2022/07/22 07:32:31;;;;;;;10.33;9.40;;;;;;;;;;5031678;28;20935;-72
2022/07/22 07:34:57;;;;;;;10.73;9.77;;;;;;;;;;5032466;28;20465;-72
2022/07/22 07:37:23;;;;;;;9.27;8.37;;;;;;;;;;5032628;28;20962;-73
2022/07/22 07:39:49;;;;;;;10.10;9.17;;;;;;;;;;5032650;28;20864;-73
2022/07/22 07:42:15;;;;;;;9.27;8.57;;;;;;;;;;5032115;28;21348;-72
2022/07/22 07:44:41;;;;;;;14.40;9.07;;;;;;;;;;5032408;28;20419;-74
2022/07/22 07:47:07;;;;;;;19.30;8.40;;;;;;;;;;5032110;28;20251;-72
2022/07/22 07:49:33;;;;;;;9.00;8.20;;;;;;;;;;5031735;28;20915;-72
2022/07/22 07:51:59;;;;;;;7.70;7.20;;;;;;;;;;5031759;28;20479;-72
2022/07/22 07:54:25;;;;;;;9.90;8.90;;;;;;;;;;5032440;28;21109;-72
2022/07/22 07:56:51;;;;;;;7.30;6.90;;;;;;;;;;5032600;28;20502;-73
2022/07/22 07:59:18;;;;;;;9.27;8.37;;;;;;;;;;5030485;28;20791;-73
2022/07/22 08:01:44;;;;;;;9.70;8.70;;;;;;;;;;5032228;28;20698;-74
2022/07/22 08:04:10;;;;;;;10.17;8.10;;;;;;;;;;5031080;28;20427;-73
2022/07/22 08:06:36;;;;;;;7.70;7.20;;;;;;;;;;5032280;28;20439;-78
2022/07/22 08:09:02;;;;;;;8.90;8.13;;;;;;;;;;5029983;28;20547;-73
2022/07/22 08:11:27;;;;;;;14.97;8.00;;;;;;;;;;5031294;28;20522;-73
2022/07/22 08:13:53;;;;;;;7.33;6.70;;;;;;;;;;5031371;28;20431;-73
2022/07/22 08:16:19;;;;;;;8.47;7.87;;;;;;;;;;5030642;28;20425;-74
2022/07/22 08:18:45;;;;;;;9.33;8.50;;;;;;;;;;5031171;28;20439;-72
2022/07/22 08:21:11;;;;;;;18.87;8.77;;;;;;;;;;5031803;28;20777;-72
2022/07/22 08:23:37;;;;;;;9.30;8.60;;;;;;;;;;5031876;28;20542;-74
2022/07/22 08:26:03;;;;;;;7.90;7.10;;;;;;;;;;5031443;28;20476;-72
2022/07/22 08:28:29;;;;;;;8.17;7.67;;;;;;;;;;5030965;28;20259;-73
2022/07/22 08:30:55;;;;;;;7.20;6.60;;;;;;;;;;5030242;28;20498;-72
2022/07/22 08:33:21;;;;;;;7.97;7.13;;;;;;;;;;5030739;28;20477;-72
2022/07/22 08:35:47;;;;;;;8.23;7.63;;;;;;;;;;5031273;28;20443;-73
2022/07/22 08:38:13;;;;;;;10.93;8.77;;;;;;;;;;5031395;28;20185;-72
2022/07/22 08:40:39;;;;;;;8.83;8.20;;;;;;;;;;5031192;28;20436;-72
2022/07/22 08:43:06;;;;;;;8.60;7.73;;;;;;;;;;5030652;28;20463;-72
2022/07/22 08:45:32;;;;;;;17.03;7.50;;;;;;;;;;5031332;28;21262;-73
2022/07/22 08:47:59;;;;;;;7.33;6.93;;;;;;;;;;5030975;28;20486;-73
2022/07/22 08:50:25;;;;;;;8.20;7.40;;;;;;;;;;5031144;28;20467;-72
2022/07/22 08:52:51;;;;;;;6.50;6.00;;;;;;;;;;5030981;28;20883;-74
2022/07/22 08:55:17;;;;;;;8.00;7.60;;;;;;;;;;5031312;28;20403;-72
2022/07/22 08:57:46;;;;;;;8.37;7.57;;;;;;;;;;5030748;28;20807;-73
2022/07/22 09:00:14;;;;;;;9.10;8.23;;;;;;;;;;5030548;28;20442;-73
2022/07/22 09:02:40;;;;;;;7.80;6.30;;;;;;;;;;5030431;28;20431;-72
2022/07/22 09:05:07;;;;;;;6.57;5.93;;;;;;;;;;5031308;28;20415;-73
2022/07/22 09:07:35;;;;;;;7.80;7.10;;;;;;;;;;5030871;28;20851;-73
2022/07/22 09:10:02;;;;;;;7.00;6.57;;;;;;;;;;5029998;28;20442;-73
2022/07/22 09:12:29;;;;;;;6.97;6.57;;;;;;;;;;5030775;28;20478;-72
2022/07/22 09:14:57;;;;;;;8.87;8.10;;;;;;;;;;5030655;28;20419;-73
2022/07/22 09:17:37;;;;;;;11.80;6.80;;;;;;;;;;5030426;28;20452;-73
2022/07/22 09:20:21;;;;;;;10.07;7.37;;;;;;;;;;5029693;28;20931;-72
2022/07/22 09:22:48;;;;;;;8.07;7.17;;;;;;;;;;5030102;28;20431;-72
2022/07/22 09:25:21;;;;;;;7.20;6.80;;;;;;;;;;5029482;28;20430;-72
2022/07/22 09:27:47;;;;;;;7.50;6.77;;;;;;;;;;5029718;28;20482;-73
2022/07/22 09:30:14;;;;;;;12.80;8.00;;;;;;;;;;5029325;28;20434;-72
2022/07/22 09:32:41;;;;;;;7.00;6.50;;;;;;;;;;5027406;28;20439;-69
2022/07/22 09:35:07;;;;;;;8.87;7.60;;;;;;;;;;5026281;28;21759;-69
2022/07/22 09:37:34;;;;;;;6.53;6.20;;;;;;;;;;5029629;28;20446;-70
2022/07/22 09:40:16;;;;;;;6.57;6.17;;;;;;;;;;5027801;28;20977;-74
2022/07/22 09:42:46;;;;;;;6.67;6.20;;;;;;;;;;5028438;28;20865;-74
2022/07/22 09:45:13;;;;;;;12.83;7.37;;;;;;;;;;5030283;28;20428;-74
2022/07/22 09:47:42;;;;;;;11.40;6.07;;;;;;;;;;5029236;28;20525;-74
2022/07/22 09:50:25;;;;;;;11.03;7.13;;;;;;;;;;5029014;28;20510;-74
2022/07/22 09:52:52;;;;;;;6.53;6.00;;;;;;;;;;5029506;28;20487;-74
2022/07/22 09:55:20;;;;;;;5.87;5.57;;;;;;;;;;5030192;28;20426;-73
2022/07/22 09:57:46;;;;;;;6.53;6.13;;;;;;;;;;5028133;28;20520;-73
2022/07/22 10:00:14;;;;;;;6.67;6.27;;;;;;;;;;5029595;28;21003;-73
2022/07/22 10:02:46;;;;;;;16.00;7.47;;;;;;;;;;5028544;28;20435;-73
2022/07/22 10:05:13;;;;;;;6.57;6.20;;;;;;;;;;5030194;28;20503;-74
2022/07/22 10:07:41;;;;;;;7.60;6.90;;;;;;;;;;5029622;28;20487;-74
2022/07/22 10:10:07;;;;;;;6.47;5.97;;;;;;;;;;5028106;28;20435;-74
2022/07/22 10:12:34;;;;;;;6.83;6.40;;;;;;;;;;5028439;28;21108;-73
2022/07/22 10:15:00;;;;;;;6.27;5.90;;;;;;;;;;5029304;28;20431;-73
2022/07/22 10:17:26;;;;;;;9.20;7.43;;;;;;;;;;5029688;28;20851;-73
2022/07/22 10:19:53;;;;;;;7.60;6.70;;;;;;;;;;5029311;28;20881;-73
2022/07/22 10:22:45;;;;;;;7.23;6.73;;;;;;;;;;5029078;28;20427;-73
2022/07/22 10:25:12;;;;;;;6.97;6.10;;;;;;;;;;5028355;28;20435;-73
2022/07/22 10:27:44;;;;;;;9.50;7.10;;;;;;;;;;5029086;28;20485;-73
2022/07/22 10:30:10;;;;;;;7.07;6.23;;;;;;;;;;5028019;28;20438;-73
2022/07/22 10:32:37;;;;;;;7.03;6.53;;;;;;;;;;5029002;28;20955;-75
2022/07/22 10:35:06;;;;;;;7.10;6.70;;;;;;;;;;5029668;28;20935;-77
2022/07/22 10:37:37;;;;;;;8.27;7.57;;;;;;;;;;5029179;28;20435;-73
2022/07/22 10:40:11;;;;;;;6.83;6.50;;;;;;;;;;5029429;28;20806;-73
2022/07/22 10:42:56;;;;;;;7.60;7.10;;;;;;;;;;5028415;28;20475;-73
2022/07/22 10:45:23;;;;;;;10.93;7.27;;;;;;;;;;5029608;28;20965;-75
2022/07/22 10:47:52;;;;;;;7.70;7.07;;;;;;;;;;5029082;28;20490;-73
2022/07/22 10:50:42;;;;;;;8.20;6.97;;;;;;;;;;5026973;28;20612;-74
2022/07/22 10:53:10;;;;;;;7.13;6.53;;;;;;;;;;5032234;28;20471;-67
2022/07/22 10:55:36;;;;;;;6.80;6.20;;;;;;;;;;5033355;28;20934;-73
2022/07/22 10:58:21;;;;;;;6.40;5.90;;;;;;;;;;5032244;28;20470;-73
2022/07/22 11:00:48;;;;;;;7.50;6.97;;;;;;;;;;5031995;28;20442;-72
2022/07/22 11:03:24;;;;;;;7.43;6.83;;;;;;;;;;5032819;28;20899;-73
2022/07/22 11:05:50;;;;;;;5.93;5.53;;;;;;;;;;5032134;28;20442;-74
2022/07/22 11:08:15;;;;;;;8.50;7.80;;;;;;;;;;5032642;28;20478;-74
2022/07/22 11:10:48;;;;;;;7.63;7.13;;;;;;;;;;5033255;28;20431;-76
2022/07/22 11:13:30;;;;;;;8.37;7.60;;;;;;;;;;5030909;28;20435;-74
2022/07/22 11:15:56;;;;;;;13.03;7.77;;;;;;;;;;5033277;28;20938;-74
2022/07/22 11:18:22;;;;;;;10.23;7.90;;;;;;;;;;5031737;28;20512;-75
2022/07/22 11:20:49;;;;;;;10.10;7.03;;;;;;;;;;5031818;28;20569;-74
2022/07/22 11:23:16;;;;;;;7.67;7.03;;;;;;;;;;5032578;28;20203;-74
2022/07/22 11:25:43;;;;;;;7.37;6.70;;;;;;;;;;5032540;28;20466;-77
2022/07/22 11:28:08;;;;;;;7.53;7.03;;;;;;;;;;5030669;28;20490;-73
2022/07/22 11:30:34;;;;;;;13.60;7.60;;;;;;;;;;5032416;28;21027;-74
2022/07/22 11:33:02;;;;;;;6.83;6.53;;;;;;;;;;5030766;28;20439;-73
2022/07/22 11:35:28;;;;;;;8.83;8.23;;;;;;;;;;5033001;28;20423;-75
2022/07/22 11:37:57;;;;;;;8.70;7.97;;;;;;;;;;5031607;28;20431;-74
2022/07/22 11:40:23;;;;;;;8.93;6.70;;;;;;;;;;5031238;28;20996;-73
2022/07/22 11:43:01;;;;;;;7.37;6.87;;;;;;;;;;5031349;28;20442;-77
2022/07/22 11:45:27;;;;;;;7.10;6.60;;;;;;;;;;5031829;28;20477;-75
2022/07/22 11:47:53;;;;;;;6.90;6.20;;;;;;;;;;5028342;28;20894;-73
2022/07/22 11:50:29;;;;;;;7.70;6.90;;;;;;;;;;5031500;28;20442;-75
2022/07/22 11:52:55;;;;;;;6.87;6.67;;;;;;;;;;5031073;28;20553;-74
2022/07/22 11:55:21;;;;;;;7.60;7.07;;;;;;;;;;5032135;28;20506;-73
2022/07/22 11:57:48;;;;;;;6.90;6.40;;;;;;;;;;5031621;28;20435;-75
2022/07/22 12:00:14;;;;;;;7.73;6.47;;;;;;;;;;5029295;28;20437;-72
2022/07/22 12:02:40;;;;;;;8.23;7.37;;;;;;;;;;5029466;28;20435;-75
2022/07/22 12:05:08;;;;;;;6.70;6.20;;;;;;;;;;5031530;28;20481;-74
2022/07/22 12:07:34;;;;;;;7.53;6.83;;;;;;;;;;5032318;28;20483;-76
2022/07/22 12:10:00;;;;;;;7.20;6.50;;;;;;;;;;5031721;28;20466;-76
2022/07/22 12:12:40;;;;;;;6.90;6.60;;;;;;;;;;5031290;28;20447;-73
2022/07/22 12:15:06;;;;;;;6.07;5.50;;;;;;;;;;5032150;28;20538;-73
2022/07/22 12:17:32;;;;;;;7.30;6.60;;;;;;;;;;5032185;28;20415;-73
2022/07/22 12:20:09;;;;;;;7.07;6.70;;;;;;;;;;5031475;28;20463;-74
2022/07/22 12:22:44;;;;;;;6.60;6.20;;;;;;;;;;5031181;28;20474;-76
2022/07/22 12:25:10;;;;;;;7.50;6.80;;;;;;;;;;5030880;28;20787;-74
2022/07/22 12:27:36;;;;;;;8.13;7.40;;;;;;;;;;5029657;28;20558;-74
2022/07/22 12:30:11;;;;;;;9.20;7.13;;;;;;;;;;5031009;28;20466;-75
2022/07/22 12:32:46;;;;;;;5.17;4.90;;;;;;;;;;5030513;28;20199;-73
2022/07/22 12:35:14;;;;;;;7.90;7.17;;;;;;;;;;5031565;28;20438;-72
2022/07/22 12:37:44;;;;;;;12.20;6.77;;;;;;;;;;5030819;28;20438;-72
2022/07/22 12:40:11;;;;;;;7.30;6.80;;;;;;;;;;5031921;28;20415;-73
2022/07/22 12:42:44;;;;;;;6.63;6.03;;;;;;;;;;5030478;28;20866;-72
2022/07/22 12:45:10;;;;;;;7.70;7.10;;;;;;;;;;5031120;28;20891;-73
2022/07/22 12:47:45;;;;;;;6.90;6.60;;;;;;;;;;5030181;28;20844;-72
2022/07/22 12:50:18;;;;;;;8.13;6.40;;;;;;;;;;5029835;28;20525;-76
2022/07/22 12:52:44;;;;;;;8.23;7.70;;;;;;;;;;5028548;28;20427;-73
2022/07/22 12:55:10;;;;;;;6.93;6.53;;;;;;;;;;5030831;28;20427;-74
2022/07/22 12:57:36;;;;;;;6.33;5.90;;;;;;;;;;5031051;28;20418;-78
2022/07/22 13:00:02;;;;;;;6.93;6.43;;;;;;;;;;5030860;28;20439;-72
2022/07/22 13:02:28;;;;;;;6.27;6.00;;;;;;;;;;5030474;28;20477;-74
2022/07/22 13:04:54;;;;;;;6.47;6.07;;;;;;;;;;5030635;28;20443;-73
2022/07/22 13:07:20;;;;;;;7.07;6.60;;;;;;;;;;5031040;28;20537;-73
2022/07/22 13:09:46;;;;;;;14.70;6.50;;;;;;;;;;5031130;28;20275;-73
2022/07/22 13:12:11;;;;;;;6.77;6.33;;;;;;;;;;5028932;28;20443;-73
2022/07/22 13:14:38;;;;;;;7.10;6.60;;;;;;;;;;5029184;28;20485;-74
2022/07/22 13:17:04;;;;;;;7.00;6.60;;;;;;;;;;5029903;28;20942;-75
2022/07/22 13:19:30;;;;;;;8.00;7.20;;;;;;;;;;5029391;28;20523;-73
2022/07/22 13:21:56;;;;;;;6.27;5.97;;;;;;;;;;5030110;28;20435;-73
2022/07/22 13:24:22;;;;;;;6.73;6.07;;;;;;;;;;5027509;28;20477;-73
2022/07/22 13:26:48;;;;;;;6.90;6.50;;;;;;;;;;5028985;28;20441;-73
2022/07/22 13:29:13;;;;;;;5.93;5.70;;;;;;;;;;5028998;28;20223;-72
2022/07/22 13:31:39;;;;;;;7.10;6.70;;;;;;;;;;5030225;28;20781;-75
2022/07/22 13:34:05;;;;;;;7.07;6.57;;;;;;;;;;5029849;28;20259;-73
2022/07/22 13:36:33;;;;;;;7.03;6.53;;;;;;;;;;5030733;28;20505;-73
2022/07/22 13:38:59;;;;;;;7.00;6.20;;;;;;;;;;5029616;28;20439;-73
2022/07/22 13:41:25;;;;;;;7.73;7.03;;;;;;;;;;5030541;28;20655;-73
2022/07/22 13:43:51;;;;;;;6.67;6.17;;;;;;;;;;5027550;28;20923;-73
2022/07/22 13:46:18;;;;;;;7.33;6.63;;;;;;;;;;5029821;28;20474;-73
2022/07/22 13:48:44;;;;;;;6.10;5.80;;;;;;;;;;5029760;28;20487;-73
2022/07/22 13:51:10;;;;;;;6.13;5.93;;;;;;;;;;5029280;28;20445;-73
2022/07/22 13:53:37;;;;;;;7.20;6.50;;;;;;;;;;5029348;28;20967;-73
2022/07/22 13:56:03;;;;;;;6.27;5.80;;;;;;;;;;5029937;28;20920;-73
2022/07/22 13:58:30;;;;;;;6.37;5.87;;;;;;;;;;5029020;28;20470;-74
2022/07/22 14:00:56;;;;;;;13.13;5.80;;;;;;;;;;5029518;28;20447;-74
2022/07/22 14:03:22;;;;;;;5.80;5.60;;;;;;;;;;5029531;28;20470;-72
2022/07/22 14:05:48;;;;;;;5.83;5.40;;;;;;;;;;5029804;28;20447;-76
2022/07/22 14:08:14;;;;;;;6.40;5.90;;;;;;;;;;5028641;28;20590;-78
2022/07/22 14:10:40;;;;;;;7.23;6.73;;;;;;;;;;5029800;28;20431;-80
2022/07/22 14:13:06;;;;;;;5.87;5.57;;;;;;;;;;5026752;28;20439;-77
2022/07/22 14:15:32;;;;;;;9.40;5.70;;;;;;;;;;5029066;28;20438;-77
2022/07/22 14:17:58;;;;;;;6.07;5.77;;;;;;;;;;5029036;28;20467;-78
2022/07/22 14:20:24;;;;;;;5.50;5.30;;;;;;;;;;5027538;28;20486;-78
2022/07/22 14:22:50;;;;;;;5.07;4.87;;;;;;;;;;5027554;28;20427;-79
2022/07/22 14:25:16;;;;;;;6.20;5.70;;;;;;;;;;5026121;28;20446;-79
2022/07/22 14:27:42;;;;;;;6.43;6.03;;;;;;;;;;5028443;28;20497;-80
2022/07/22 14:30:08;;;;;;;5.93;5.47;;;;;;;;;;5028663;28;20783;-78
2022/07/22 14:32:34;;;;;;;7.10;5.70;;;;;;;;;;5028699;28;20279;-80
2022/07/22 14:35:01;;;;;;;5.73;5.33;;;;;;;;;;5028112;28;20506;-78
2022/07/22 14:37:27;;;;;;;5.77;5.07;;;;;;;;;;5028013;28;20649;-79
2022/07/22 14:39:54;;;;;;;6.00;5.60;;;;;;;;;;5028135;28;20438;-75